sensor_id;sensor_type;location;lat;lon;timestamp;pressure;altitude;pressure_sealevel;temperature;humidity
7668;BME280;3876;42.204;24.686;2023-03-21T00:02:16;99390.50;;;10.80;76.86
7668;BME280;3876;42.204;24.686;2023-03-21T00:04:44;99402.88;;;10.95;76.83
7668;BME280;3876;42.204;24.686;2023-03-21T00:07:11;99394.47;;;10.90;76.88
7668;BME280;3876;42.204;24.686;2023-03-21T00:09:38;99389.44;;;10.87;77.00
7668;BME280;3876;42.204;24.686;2023-03-21T00:12:05;99386.84;;;10.88;77.09
7668;BME280;3876;42.204;24.686;2023-03-21T00:14:34;99380.13;;;10.84;77.26
7668;BME280;3876;42.204;24.686;2023-03-21T00:17:02;99378.50;;;10.82;76.96
7668;BME280;3876;42.204;24.686;2023-03-21T00:19:29;99381.91;;;10.82;77.39
7668;BME280;3876;42.204;24.686;2023-03-21T00:21:58;99383.56;;;10.83;76.89
7668;BME280;3876;42.204;24.686;2023-03-21T00:24:26;99366.69;;;10.76;77.05
7668;BME280;3876;42.204;24.686;2023-03-21T00:26:53;99377.50;;;10.86;77.76
7668;BME280;3876;42.204;24.686;2023-03-21T00:29:20;99370.81;;;10.82;77.55
7668;BME280;3876;42.204;24.686;2023-03-21T00:31:47;99372.47;;;10.83;77.51
7668;BME280;3876;42.204;24.686;2023-03-21T00:34:14;99365.69;;;10.82;77.99
7668;BME280;3876;42.204;24.686;2023-03-21T00:36:41;99363.97;;;10.82;77.64
7668;BME280;3876;42.204;24.686;2023-03-21T00:39:09;99362.22;;;10.83;77.74
7668;BME280;3876;42.204;24.686;2023-03-21T00:41:36;99358.88;;;10.81;78.39
7668;BME280;3876;42.204;24.686;2023-03-21T00:44:03;99326.81;;;10.68;78.54
7668;BME280;3876;42.204;24.686;2023-03-21T00:46:30;99351.13;;;10.82;78.73
7668;BME280;3876;42.204;24.686;2023-03-21T00:48:56;99343.78;;;10.72;78.80
7668;BME280;3876;42.204;24.686;2023-03-21T00:51:23;99340.25;;;10.76;78.91
7668;BME280;3876;42.204;24.686;2023-03-21T00:53:53;99343.69;;;10.75;78.74
7668;BME280;3876;42.204;24.686;2023-03-21T00:56:21;99326.91;;;10.65;78.66
7668;BME280;3876;42.204;24.686;2023-03-21T00:58:48;99340.31;;;10.73;79.20
7668;BME280;3876;42.204;24.686;2023-03-21T01:01:16;99335.19;;;10.73;78.67
7668;BME280;3876;42.204;24.686;2023-03-21T01:03:42;99329.16;;;10.74;79.05
7668;BME280;3876;42.204;24.686;2023-03-21T01:06:16;99320.84;;;10.67;79.50
7668;BME280;3876;42.204;24.686;2023-03-21T01:08:46;99329.34;;;10.69;78.87
7668;BME280;3876;42.204;24.686;2023-03-21T01:11:15;99320.91;;;10.66;79.29
7668;BME280;3876;42.204;24.686;2023-03-21T01:13:44;99321.81;;;10.63;78.91
7668;BME280;3876;42.204;24.686;2023-03-21T01:16:11;99328.69;;;10.63;79.35
7668;BME280;3876;42.204;24.686;2023-03-21T01:18:39;99315.91;;;10.61;79.03
7668;BME280;3876;42.204;24.686;2023-03-21T01:21:08;99308.28;;;10.60;79.33
7668;BME280;3876;42.204;24.686;2023-03-21T01:23:40;99314.19;;;10.62;79.67
7668;BME280;3876;42.204;24.686;2023-03-21T01:26:08;99313.47;;;10.57;79.56
7668;BME280;3876;42.204;24.686;2023-03-21T01:28:36;99299.09;;;10.52;79.63
7668;BME280;3876;42.204;24.686;2023-03-21T01:31:05;99285.78;;;10.41;79.66
7668;BME280;3876;42.204;24.686;2023-03-21T01:33:33;99301.75;;;10.49;80.38
7668;BME280;3876;42.204;24.686;2023-03-21T01:36:00;99300.03;;;10.50;79.96
7668;BME280;3876;42.204;24.686;2023-03-21T01:38:27;99295.63;;;10.53;80.63
7668;BME280;3876;42.204;24.686;2023-03-21T01:40:56;99276.34;;;10.43;80.91
7668;BME280;3876;42.204;24.686;2023-03-21T01:43:27;99276.41;;;10.40;81.31
7668;BME280;3876;42.204;24.686;2023-03-21T01:49:04;99278.19;;;10.38;81.55
7668;BME280;3876;42.204;24.686;2023-03-21T01:51:34;99279.22;;;10.33;81.54
7668;BME280;3876;42.204;24.686;2023-03-21T01:54:03;99254.91;;;10.18;81.68
7668;BME280;3876;42.204;24.686;2023-03-21T01:56:35;99239.63;;;10.15;81.66
7668;BME280;3876;42.204;24.686;2023-03-21T01:59:10;99220.25;;;10.07;81.46
7668;BME280;3876;42.204;24.686;2023-03-21T02:01:39;99264.94;;;10.24;81.05
7668;BME280;3876;42.204;24.686;2023-03-21T02:04:07;99260.03;;;10.18;81.16
7668;BME280;3876;42.204;24.686;2023-03-21T02:06:39;99262.75;;;10.14;81.64
7668;BME280;3876;42.204;24.686;2023-03-21T02:09:11;99271.28;;;10.13;81.75
7668;BME280;3876;42.204;24.686;2023-03-21T02:11:39;99259.31;;;10.13;81.66
7668;BME280;3876;42.204;24.686;2023-03-21T02:14:13;99250.78;;;10.13;81.62
7668;BME280;3876;42.204;24.686;2023-03-21T02:16:47;99259.44;;;10.09;82.27
7668;BME280;3876;42.204;24.686;2023-03-21T02:19:57;99255.34;;;10.03;83.30
7668;BME280;3876;42.204;24.686;2023-03-21T02:23:01;99258.88;;;9.99;84.15
7668;BME280;3876;42.204;24.686;2023-03-21T02:26:05;99263.25;;;9.95;84.94
7668;BME280;3876;42.204;24.686;2023-03-21T02:28:39;99260.66;;;9.97;85.63
7668;BME280;3876;42.204;24.686;2023-03-21T02:31:23;99265.78;;;9.97;86.20
7668;BME280;3876;42.204;24.686;2023-03-21T02:34:17;99272.59;;;9.98;86.27
7668;BME280;3876;42.204;24.686;2023-03-21T02:37:17;99268.25;;;10.00;86.48
7668;BME280;3876;42.204;24.686;2023-03-21T02:39:53;99275.19;;;9.96;87.27
7668;BME280;3876;42.204;24.686;2023-03-21T02:42:28;99272.00;;;9.88;88.38
7668;BME280;3876;42.204;24.686;2023-03-21T02:45:01;99267.97;;;9.80;88.71
7668;BME280;3876;42.204;24.686;2023-03-21T02:47:32;99271.25;;;9.85;89.05
7668;BME280;3876;42.204;24.686;2023-03-21T02:50:06;99286.44;;;9.91;88.77
7668;BME280;3876;42.204;24.686;2023-03-21T02:52:37;99286.34;;;9.94;89.42
7668;BME280;3876;42.204;24.686;2023-03-21T02:55:08;99289.69;;;9.96;89.44
7668;BME280;3876;42.204;24.686;2023-03-21T02:57:40;99289.59;;;9.99;89.28
7668;BME280;3876;42.204;24.686;2023-03-21T03:00:10;99280.25;;;9.98;89.58
7668;BME280;3876;42.204;24.686;2023-03-21T03:02:39;99289.13;;;9.86;90.36
7668;BME280;3876;42.204;24.686;2023-03-21T03:05:14;99283.97;;;9.88;90.92
7668;BME280;3876;42.204;24.686;2023-03-21T03:07:54;99287.31;;;9.90;91.18
7668;BME280;3876;42.204;24.686;2023-03-21T03:10:36;99290.59;;;9.95;90.68
7668;BME280;3876;42.204;24.686;2023-03-21T03:13:14;99296.50;;;9.97;90.44
7668;BME280;3876;42.204;24.686;2023-03-21T03:15:52;99298.09;;;10.01;90.37
7668;BME280;3876;42.204;24.686;2023-03-21T03:18:27;99304.06;;;10.01;90.57
7668;BME280;3876;42.204;24.686;2023-03-21T03:21:02;99305.91;;;9.96;90.56
7668;BME280;3876;42.204;24.686;2023-03-21T03:23:39;99304.41;;;9.89;90.75
7668;BME280;3876;42.204;24.686;2023-03-21T03:26:10;99301.91;;;9.88;90.30
7668;BME280;3876;42.204;24.686;2023-03-21T03:28:42;99296.06;;;9.83;89.89
7668;BME280;3876;42.204;24.686;2023-03-21T03:31:12;99305.34;;;9.87;89.82
7668;BME280;3876;42.204;24.686;2023-03-21T03:33:43;99300.31;;;9.84;90.11
7668;BME280;3876;42.204;24.686;2023-03-21T03:36:13;99302.06;;;9.82;90.02
7668;BME280;3876;42.204;24.686;2023-03-21T03:38:45;99302.06;;;9.82;90.30
7668;BME280;3876;42.204;24.686;2023-03-21T03:41:17;99291.00;;;9.81;90.10
7668;BME280;3876;42.204;24.686;2023-03-21T03:43:47;99292.66;;;9.82;90.15
7668;BME280;3876;42.204;24.686;2023-03-21T03:46:17;99286.72;;;9.82;89.71
7668;BME280;3876;42.204;24.686;2023-03-21T03:48:48;99278.13;;;9.83;89.47
7668;BME280;3876;42.204;24.686;2023-03-21T03:51:21;99281.59;;;9.82;89.06
7668;BME280;3876;42.204;24.686;2023-03-21T03:53:53;99282.47;;;9.81;88.86
7668;BME280;3876;42.204;24.686;2023-03-21T03:56:21;99280.78;;;9.80;88.61
7668;BME280;3876;42.204;24.686;2023-03-21T03:58:49;99247.19;;;9.63;88.86
7668;BME280;3876;42.204;24.686;2023-03-21T04:01:16;99268.88;;;9.79;88.70
7668;BME280;3876;42.204;24.686;2023-03-21T04:03:46;99269.75;;;9.78;88.99
7668;BME280;3876;42.204;24.686;2023-03-21T04:06:14;99258.09;;;9.68;88.93
7668;BME280;3876;42.204;24.686;2023-03-21T04:08:41;99279.25;;;9.74;88.57
7668;BME280;3876;42.204;24.686;2023-03-21T04:11:12;99276.72;;;9.73;88.29
7668;BME280;3876;42.204;24.686;2023-03-21T04:13:39;99258.38;;;9.59;88.62
7668;BME280;3876;42.204;24.686;2023-03-21T04:16:06;99278.50;;;9.71;88.24
7668;BME280;3876;42.204;24.686;2023-03-21T04:18:33;99287.00;;;9.71;88.12
7668;BME280;3876;42.204;24.686;2023-03-21T04:21:06;99286.34;;;9.65;88.50
7668;BME280;3876;42.204;24.686;2023-03-21T04:23:33;99289.03;;;9.60;88.13
7668;BME280;3876;42.204;24.686;2023-03-21T04:26:01;99290.81;;;9.57;88.73
7668;BME280;3876;42.204;24.686;2023-03-21T04:28:29;99287.41;;;9.58;88.10
7668;BME280;3876;42.204;24.686;2023-03-21T04:30:56;99253.94;;;9.34;88.29
7668;BME280;3876;42.204;24.686;2023-03-21T04:33:23;99288.53;;;9.47;88.45
7668;BME280;3876;42.204;24.686;2023-03-21T04:35:50;99260.09;;;9.27;88.96
7668;BME280;3876;42.204;24.686;2023-03-21T04:38:20;99292.03;;;9.43;89.52
7668;BME280;3876;42.204;24.686;2023-03-21T04:40:47;99292.03;;;9.43;89.29
7668;BME280;3876;42.204;24.686;2023-03-21T04:43:14;99297.16;;;9.43;90.04
7668;BME280;3876;42.204;24.686;2023-03-21T04:45:43;99296.38;;;9.41;89.95
7668;BME280;3876;42.204;24.686;2023-03-21T04:48:10;99303.19;;;9.42;89.76
7668;BME280;3876;42.204;24.686;2023-03-21T04:50:38;99301.50;;;9.41;90.19
7668;BME280;3876;42.204;24.686;2023-03-21T04:53:05;99298.06;;;9.42;90.48
7668;BME280;3876;42.204;24.686;2023-03-21T04:55:32;99293.13;;;9.36;90.51
7668;BME280;3876;42.204;24.686;2023-03-21T04:57:59;99304.91;;;9.42;90.96
7668;BME280;3876;42.204;24.686;2023-03-21T05:00:25;99289.03;;;9.29;91.45
7668;BME280;3876;42.204;24.686;2023-03-21T05:02:54;99299.28;;;9.29;93.20
7668;BME280;3876;42.204;24.686;2023-03-21T05:05:22;99306.25;;;9.23;94.52
7668;BME280;3876;42.204;24.686;2023-03-21T05:07:50;99310.25;;;9.01;97.13
7668;BME280;3876;42.204;24.686;2023-03-21T05:10:17;99312.47;;;8.80;99.92
7668;BME280;3876;42.204;24.686;2023-03-21T05:12:43;99307.16;;;8.88;100.00
7668;BME280;3876;42.204;24.686;2023-03-21T05:15:10;99308.13;;;8.82;100.00
7668;BME280;3876;42.204;24.686;2023-03-21T05:17:37;99311.75;;;8.74;100.00
7668;BME280;3876;42.204;24.686;2023-03-21T05:20:09;99310.16;;;8.70;100.00
7668;BME280;3876;42.204;24.686;2023-03-21T05:22:36;99306.63;;;8.75;100.00
7668;BME280;3876;42.204;24.686;2023-03-21T05:25:06;99293.94;;;8.71;100.00
7668;BME280;3876;42.204;24.686;2023-03-21T05:27:34;99299.66;;;8.82;100.00
7668;BME280;3876;42.204;24.686;2023-03-21T05:30:07;99302.59;;;8.99;100.00
7668;BME280;3876;42.204;24.686;2023-03-21T05:32:35;99302.28;;;9.11;100.00
7668;BME280;3876;42.204;24.686;2023-03-21T05:35:02;99300.41;;;9.18;100.00
7668;BME280;3876;42.204;24.686;2023-03-21T05:37:30;99274.81;;;9.19;100.00
7668;BME280;3876;42.204;24.686;2023-03-21T05:39:57;99297.13;;;9.45;100.00
7668;BME280;3876;42.204;24.686;2023-03-21T05:42:24;99292.56;;;9.56;100.00
7668;BME280;3876;42.204;24.686;2023-03-21T05:44:51;99283.97;;;9.59;100.00
7668;BME280;3876;42.204;24.686;2023-03-21T05:47:18;99270.94;;;9.66;100.00
7668;BME280;3876;42.204;24.686;2023-03-21T05:49:45;99286.72;;;9.82;100.00
7668;BME280;3876;42.204;24.686;2023-03-21T05:52:12;99290.63;;;9.93;100.00
7668;BME280;3876;42.204;24.686;2023-03-21T05:54:40;99282.91;;;9.95;100.00
7668;BME280;3876;42.204;24.686;2023-03-21T05:57:07;99301.91;;;10.17;100.00
7668;BME280;3876;42.204;24.686;2023-03-21T05:59:34;99309.31;;;10.26;100.00
7668;BME280;3876;42.204;24.686;2023-03-21T06:02:01;99305.88;;;10.27;100.00
7668;BME280;3876;42.204;24.686;2023-03-21T06:04:28;99314.06;;;10.38;100.00
7668;BME280;3876;42.204;24.686;2023-03-21T06:06:55;99298.13;;;10.29;100.00
7668;BME280;3876;42.204;24.686;2023-03-21T06:09:23;99311.38;;;10.43;100.00
7668;BME280;3876;42.204;24.686;2023-03-21T06:11:53;99312.28;;;10.40;100.00
7668;BME280;3876;42.204;24.686;2023-03-21T06:14:21;99300.84;;;10.50;100.00
7668;BME280;3876;42.204;24.686;2023-03-21T06:16:48;99309.06;;;10.62;100.00
7668;BME280;3876;42.204;24.686;2023-03-21T06:19:15;99304.69;;;10.65;100.00
7668;BME280;3876;42.204;24.686;2023-03-21T06:21:42;99301.06;;;10.71;100.00
7668;BME280;3876;42.204;24.686;2023-03-21T06:24:09;99277.69;;;10.53;100.00
7668;BME280;3876;42.204;24.686;2023-03-21T06:26:36;99305.00;;;10.81;100.00
7668;BME280;3876;42.204;24.686;2023-03-21T06:29:04;99309.00;;;10.89;100.00
7668;BME280;3876;42.204;24.686;2023-03-21T06:31:31;99301.16;;;10.94;100.00
7668;BME280;3876;42.204;24.686;2023-03-21T06:33:58;99302.94;;;10.92;100.00
7668;BME280;3876;42.204;24.686;2023-03-21T06:36:24;99309.72;;;10.93;100.00
7668;BME280;3876;42.204;24.686;2023-03-21T06:38:51;99320.81;;;10.95;100.00
7668;BME280;3876;42.204;24.686;2023-03-21T06:41:18;99315.38;;;11.04;100.00
7668;BME280;3876;42.204;24.686;2023-03-21T06:43:45;99316.00;;;11.11;100.00
7668;BME280;3876;42.204;24.686;2023-03-21T06:46:14;99317.38;;;11.21;100.00
7668;BME280;3876;42.204;24.686;2023-03-21T06:48:41;99312.97;;;11.24;100.00
7668;BME280;3876;42.204;24.686;2023-03-21T06:51:10;99313.50;;;11.34;100.00
7668;BME280;3876;42.204;24.686;2023-03-21T06:53:37;99320.97;;;11.40;100.00
7668;BME280;3876;42.204;24.686;2023-03-21T06:56:06;99314.13;;;11.40;100.00
7668;BME280;3876;42.204;24.686;2023-03-21T06:58:34;99317.34;;;11.45;100.00
7668;BME280;3876;42.204;24.686;2023-03-21T07:01:01;99312.75;;;11.53;100.00
7668;BME280;3876;42.204;24.686;2023-03-21T07:03:29;99317.97;;;11.52;100.00
7668;BME280;3876;42.204;24.686;2023-03-21T07:05:57;99313.38;;;11.60;100.00
7668;BME280;3876;42.204;24.686;2023-03-21T07:08:24;99316.91;;;11.57;100.00
7668;BME280;3876;42.204;24.686;2023-03-21T07:10:54;99329.47;;;11.65;100.00
7668;BME280;3876;42.204;24.686;2023-03-21T07:13:21;99333.25;;;11.80;100.00
7668;BME280;3876;42.204;24.686;2023-03-21T07:15:48;99324.31;;;11.90;100.00
7668;BME280;3876;42.204;24.686;2023-03-21T07:18:15;99327.56;;;11.95;100.00
7668;BME280;3876;42.204;24.686;2023-03-21T07:20:45;99327.22;;;12.04;100.00
7668;BME280;3876;42.204;24.686;2023-03-21T07:23:15;99324.06;;;12.19;100.00
7668;BME280;3876;42.204;24.686;2023-03-21T07:25:42;99326.06;;;12.34;100.00
7668;BME280;3876;42.204;24.686;2023-03-21T07:28:09;99312.06;;;12.41;99.73
7668;BME280;3876;42.204;24.686;2023-03-21T07:30:35;99318.38;;;12.56;99.83
7668;BME280;3876;42.204;24.686;2023-03-21T07:33:02;99320.28;;;12.73;99.91
7668;BME280;3876;42.204;24.686;2023-03-21T07:35:30;99322.22;;;12.88;98.66
7668;BME280;3876;42.204;24.686;2023-03-21T07:37:58;99319.94;;;13.02;97.66
7668;BME280;3876;42.204;24.686;2023-03-21T07:40:25;99323.78;;;13.12;97.85
7668;BME280;3876;42.204;24.686;2023-03-21T07:42:52;99317.38;;;13.22;95.42
7668;BME280;3876;42.204;24.686;2023-03-21T07:45:19;99313.38;;;13.35;94.13
7668;BME280;3876;42.204;24.686;2023-03-21T07:47:48;99310.41;;;13.44;94.27
7668;BME280;3876;42.204;24.686;2023-03-21T07:50:15;99311.69;;;13.54;92.67
7668;BME280;3876;42.204;24.686;2023-03-21T07:52:42;99308.16;;;13.57;92.06
7668;BME280;3876;42.204;24.686;2023-03-21T07:55:11;99308.97;;;13.57;91.96
7668;BME280;3876;42.204;24.686;2023-03-21T07:57:38;99307.81;;;13.64;92.50
7668;BME280;3876;42.204;24.686;2023-03-21T08:00:07;99305.16;;;13.66;91.39
7668;BME280;3876;42.204;24.686;2023-03-21T08:02:35;99306.50;;;13.75;91.57
7668;BME280;3876;42.204;24.686;2023-03-21T08:05:02;99301.91;;;13.81;91.88
7668;BME280;3876;42.204;24.686;2023-03-21T08:07:29;99300.91;;;13.84;90.41
7668;BME280;3876;42.204;24.686;2023-03-21T08:09:56;99297.50;;;13.83;90.13
7668;BME280;3876;42.204;24.686;2023-03-21T08:12:25;99293.34;;;13.81;90.32
7668;BME280;3876;42.204;24.686;2023-03-21T08:14:57;99291.16;;;13.72;90.19
7668;BME280;3876;42.204;24.686;2023-03-21T08:17:24;99292.78;;;13.74;89.97
7668;BME280;3876;42.204;24.686;2023-03-21T08:19:51;99299.28;;;13.83;89.33
7668;BME280;3876;42.204;24.686;2023-03-21T08:22:17;99302.31;;;13.91;89.84
7668;BME280;3876;42.204;24.686;2023-03-21T08:24:44;99296.88;;;13.97;89.94
7668;BME280;3876;42.204;24.686;2023-03-21T08:27:11;99299.19;;;14.03;89.12
7668;BME280;3876;42.204;24.686;2023-03-21T08:29:39;99301.06;;;13.99;89.17
7668;BME280;3876;42.204;24.686;2023-03-21T08:32:07;99305.50;;;13.96;89.09
7668;BME280;3876;42.204;24.686;2023-03-21T08:34:34;99306.63;;;14.09;89.15
7668;BME280;3876;42.204;24.686;2023-03-21T08:37:00;99313.69;;;14.24;87.56
7668;BME280;3876;42.204;24.686;2023-03-21T08:39:28;99303.38;;;14.24;87.37
7668;BME280;3876;42.204;24.686;2023-03-21T08:41:55;99307.59;;;14.25;87.39
7668;BME280;3876;42.204;24.686;2023-03-21T08:44:21;99301.47;;;14.28;87.04
7668;BME280;3876;42.204;24.686;2023-03-21T08:46:51;99295.22;;;14.33;87.73
7668;BME280;3876;42.204;24.686;2023-03-21T08:49:18;99296.09;;;14.32;86.98
7668;BME280;3876;42.204;24.686;2023-03-21T08:51:45;99296.31;;;14.46;86.49
7668;BME280;3876;42.204;24.686;2023-03-21T08:54:18;99305.31;;;14.56;85.47
7668;BME280;3876;42.204;24.686;2023-03-21T08:56:45;99293.53;;;14.68;84.54
7668;BME280;3876;42.204;24.686;2023-03-21T08:59:13;99291.50;;;14.75;84.89
7668;BME280;3876;42.204;24.686;2023-03-21T09:01:40;99294.56;;;14.83;85.63
7668;BME280;3876;42.204;24.686;2023-03-21T09:04:08;99288.16;;;14.73;85.82
7668;BME280;3876;42.204;24.686;2023-03-21T09:06:36;99286.97;;;14.80;84.64
7668;BME280;3876;42.204;24.686;2023-03-21T09:09:03;99280.19;;;14.77;85.40
7668;BME280;3876;42.204;24.686;2023-03-21T09:12:01;99284.63;;;14.92;84.77
7668;BME280;3876;42.204;24.686;2023-03-21T09:14:28;99280.66;;;15.02;85.74
7668;BME280;3876;42.204;24.686;2023-03-21T09:16:55;99284.59;;;15.09;84.93
7668;BME280;3876;42.204;24.686;2023-03-21T09:19:23;99290.69;;;15.08;84.26
7668;BME280;3876;42.204;24.686;2023-03-21T09:21:50;99286.63;;;15.20;84.30
7668;BME280;3876;42.204;24.686;2023-03-21T09:24:18;99280.25;;;15.27;84.01
7668;BME280;3876;42.204;24.686;2023-03-21T09:26:46;99276.59;;;15.31;84.35
7668;BME280;3876;42.204;24.686;2023-03-21T09:29:15;99276.53;;;15.15;83.86
7668;BME280;3876;42.204;24.686;2023-03-21T09:31:43;99278.19;;;15.16;83.91
7668;BME280;3876;42.204;24.686;2023-03-21T09:34:11;99278.47;;;15.12;83.81
7668;BME280;3876;42.204;24.686;2023-03-21T09:36:40;99274.94;;;15.13;83.21
7668;BME280;3876;42.204;24.686;2023-03-21T09:39:08;99270.25;;;15.21;83.91
7668;BME280;3876;42.204;24.686;2023-03-21T09:42:04;99271.72;;;15.25;84.16
7668;BME280;3876;42.204;24.686;2023-03-21T09:44:44;99268.28;;;15.42;83.64
7668;BME280;3876;42.204;24.686;2023-03-21T09:47:19;99261.00;;;15.50;82.58
7668;BME280;3876;42.204;24.686;2023-03-21T09:49:49;99255.97;;;15.47;83.43
7668;BME280;3876;42.204;24.686;2023-03-21T09:52:21;99253.16;;;15.51;83.27
7668;BME280;3876;42.204;24.686;2023-03-21T09:54:50;99255.69;;;15.53;83.24
7668;BME280;3876;42.204;24.686;2023-03-21T09:57:26;99259.19;;;15.67;83.24
7668;BME280;3876;42.204;24.686;2023-03-21T09:59:58;99262.16;;;15.93;83.53
7668;BME280;3876;42.204;24.686;2023-03-21T10:02:35;99258.56;;;16.11;82.00
7668;BME280;3876;42.204;24.686;2023-03-21T10:05:12;99250.13;;;16.23;81.27
7668;BME280;3876;42.204;24.686;2023-03-21T10:07:45;99244.09;;;16.38;79.90
7668;BME280;3876;42.204;24.686;2023-03-21T10:10:18;99237.47;;;16.48;81.64
7668;BME280;3876;42.204;24.686;2023-03-21T10:12:46;99228.63;;;16.52;78.80
7668;BME280;3876;42.204;24.686;2023-03-21T10:15:18;99235.72;;;16.64;79.86
7668;BME280;3876;42.204;24.686;2023-03-21T10:17:49;99250.03;;;16.86;79.77
7668;BME280;3876;42.204;24.686;2023-03-21T10:20:20;99239.66;;;17.00;77.67
7668;BME280;3876;42.204;24.686;2023-03-21T10:23:06;99237.94;;;17.14;74.54
7668;BME280;3876;42.204;24.686;2023-03-21T10:25:35;99221.59;;;17.28;77.74
7668;BME280;3876;42.204;24.686;2023-03-21T10:28:05;99234.16;;;17.34;75.07
7668;BME280;3876;42.204;24.686;2023-03-21T10:30:37;99226.19;;;17.51;76.68
7668;BME280;3876;42.204;24.686;2023-03-21T10:33:11;99219.16;;;17.53;73.47
7668;BME280;3876;42.204;24.686;2023-03-21T10:35:40;99226.31;;;17.64;71.88
7668;BME280;3876;42.204;24.686;2023-03-21T10:38:14;99204.75;;;17.63;71.64
7668;BME280;3876;42.204;24.686;2023-03-21T10:40:42;99217.41;;;17.68;70.87
7668;BME280;3876;42.204;24.686;2023-03-21T10:43:29;99214.09;;;17.66;70.91
7668;BME280;3876;42.204;24.686;2023-03-21T10:46:05;99202.88;;;17.65;71.99
7668;BME280;3876;42.204;24.686;2023-03-21T10:48:34;99198.59;;;17.78;72.18
7668;BME280;3876;42.204;24.686;2023-03-21T10:51:05;99198.97;;;17.72;72.21
7668;BME280;3876;42.204;24.686;2023-03-21T10:53:38;99184.94;;;17.62;72.44
7668;BME280;3876;42.204;24.686;2023-03-21T10:56:07;99196.03;;;17.64;71.65
7668;BME280;3876;42.204;24.686;2023-03-21T10:58:38;99191.78;;;17.63;71.48
7668;BME280;3876;42.204;24.686;2023-03-21T11:01:11;99184.25;;;17.73;71.25
7668;BME280;3876;42.204;24.686;2023-03-21T11:03:42;99184.47;;;17.70;70.99
7668;BME280;3876;42.204;24.686;2023-03-21T11:06:14;99179.59;;;17.78;71.36
7668;BME280;3876;42.204;24.686;2023-03-21T11:08:46;99169.16;;;17.79;70.55
7668;BME280;3876;42.204;24.686;2023-03-21T11:11:24;99161.63;;;17.89;70.81
7668;BME280;3876;42.204;24.686;2023-03-21T11:13:57;99155.72;;;18.00;71.76
7668;BME280;3876;42.204;24.686;2023-03-21T11:16:29;99135.13;;;17.84;70.10
7668;BME280;3876;42.204;24.686;2023-03-21T11:19:00;99134.81;;;17.76;70.05
7668;BME280;3876;42.204;24.686;2023-03-21T11:21:27;99133.97;;;17.75;70.81
7668;BME280;3876;42.204;24.686;2023-03-21T11:24:03;99142.00;;;17.85;69.47
7668;BME280;3876;42.204;24.686;2023-03-21T11:26:34;99140.56;;;17.94;67.67
7668;BME280;3876;42.204;24.686;2023-03-21T11:29:11;99136.41;;;17.91;67.74
7668;BME280;3876;42.204;24.686;2023-03-21T11:31:42;99129.63;;;18.03;68.05
7668;BME280;3876;42.204;24.686;2023-03-21T11:34:24;99139.59;;;18.09;68.63
7668;BME280;3876;42.204;24.686;2023-03-21T11:36:52;99138.34;;;18.14;66.68
7668;BME280;3876;42.204;24.686;2023-03-21T11:39:42;99124.88;;;18.09;64.93
7668;BME280;3876;42.204;24.686;2023-03-21T11:42:27;99122.16;;;18.11;64.95
7668;BME280;3876;42.204;24.686;2023-03-21T11:45:01;99121.34;;;18.23;64.49
7668;BME280;3876;42.204;24.686;2023-03-21T11:47:28;99115.38;;;18.35;64.52
7668;BME280;3876;42.204;24.686;2023-03-21T11:49:56;99108.59;;;18.45;63.90
7668;BME280;3876;42.204;24.686;2023-03-21T11:52:30;99102.06;;;18.27;64.49
7668;BME280;3876;42.204;24.686;2023-03-21T11:55:23;99100.78;;;18.20;65.11
7668;BME280;3876;42.204;24.686;2023-03-21T11:58:01;99088.78;;;18.19;65.83
7668;BME280;3876;42.204;24.686;2023-03-21T12:00:34;99068.59;;;18.10;66.19
7668;BME280;3876;42.204;24.686;2023-03-21T12:03:19;99088.59;;;18.34;66.54
7668;BME280;3876;42.204;24.686;2023-03-21T12:05:57;99085.56;;;18.41;65.93
7668;BME280;3876;42.204;24.686;2023-03-21T12:08:33;99081.94;;;18.43;66.30
7668;BME280;3876;42.204;24.686;2023-03-21T12:11:11;99066.56;;;18.40;67.07
7668;BME280;3876;42.204;24.686;2023-03-21T12:13:50;99085.50;;;18.55;65.54
7668;BME280;3876;42.204;24.686;2023-03-21T12:16:33;99081.53;;;18.49;64.80
7668;BME280;3876;42.204;24.686;2023-03-21T12:19:14;99069.91;;;18.55;65.82
7668;BME280;3876;42.204;24.686;2023-03-21T12:21:52;99065.34;;;18.58;64.76
7668;BME280;3876;42.204;24.686;2023-03-21T12:24:30;99063.88;;;18.42;65.27
7668;BME280;3876;42.204;24.686;2023-03-21T12:27:03;99058.56;;;18.43;65.17
7668;BME280;3876;42.204;24.686;2023-03-21T12:29:47;99057.84;;;18.41;63.27
7668;BME280;3876;42.204;24.686;2023-03-21T12:32:26;99057.66;;;18.31;61.99
7668;BME280;3876;42.204;24.686;2023-03-21T12:35:05;99061.78;;;18.34;63.13
7668;BME280;3876;42.204;24.686;2023-03-21T12:37:37;99043.63;;;18.34;63.77
7668;BME280;3876;42.204;24.686;2023-03-21T12:40:12;99048.19;;;18.18;63.79
7668;BME280;3876;42.204;24.686;2023-03-21T12:42:51;99043.91;;;18.17;64.14
7668;BME280;3876;42.204;24.686;2023-03-21T12:45:28;99046.00;;;18.12;64.86
7668;BME280;3876;42.204;24.686;2023-03-21T12:48:14;99035.09;;;18.19;65.27
7668;BME280;3876;42.204;24.686;2023-03-21T12:50:44;99016.50;;;18.13;65.72
7668;BME280;3876;42.204;24.686;2023-03-21T12:53:25;99038.72;;;18.17;66.16
7668;BME280;3876;42.204;24.686;2023-03-21T12:55:56;99037.91;;;18.29;66.36
7668;BME280;3876;42.204;24.686;2023-03-21T12:58:27;99039.56;;;18.30;66.54
7668;BME280;3876;42.204;24.686;2023-03-21T13:01:00;99028.16;;;18.20;66.33
7668;BME280;3876;42.204;24.686;2023-03-21T13:03:32;99036.34;;;18.39;66.85
7668;BME280;3876;42.204;24.686;2023-03-21T13:06:02;99032.50;;;18.32;66.66
7668;BME280;3876;42.204;24.686;2023-03-21T13:08:33;99027.13;;;18.35;67.29
7668;BME280;3876;42.204;24.686;2023-03-21T13:11:03;99026.19;;;18.36;67.73
7668;BME280;3876;42.204;24.686;2023-03-21T13:13:35;99025.66;;;18.31;67.23
7668;BME280;3876;42.204;24.686;2023-03-21T13:16:08;99021.50;;;18.16;68.56
7668;BME280;3876;42.204;24.686;2023-03-21T13:18:46;99020.28;;;18.21;68.55
7668;BME280;3876;42.204;24.686;2023-03-21T13:21:17;99021.50;;;18.16;68.55
7668;BME280;3876;42.204;24.686;2023-03-21T13:23:57;99013.63;;;18.17;68.81
7668;BME280;3876;42.204;24.686;2023-03-21T13:26:32;99011.66;;;18.21;68.59
7668;BME280;3876;42.204;24.686;2023-03-21T13:29:01;99005.75;;;18.19;68.03
7668;BME280;3876;42.204;24.686;2023-03-21T13:31:27;99007.59;;;18.17;68.71
7668;BME280;3876;42.204;24.686;2023-03-21T13:33:58;99002.41;;;18.17;69.17
7668;BME280;3876;42.204;24.686;2023-03-21T13:36:27;99005.13;;;18.15;68.96